Sct Santiago — V7NF7 — position and weather

sailwx.info

Track history (hours):
 
Tides and Currents Weather Stations Pressure Air Temp Water Temp Dewpoint Dewpoint Depression Visibility Wind Speed Wind Dir Waves Ship Positions

Sct Santiago

Last reported at 2014-Sep-16 02:33 UTC. Time now 2014-Sep-16 02:59 UTC.
Position N 53°32' E 009°55'.

Length 294 m; draft 8.4 m.

Type: Cargo ship. MMSI: 538002953.

Date/timePositionNaut miles runAvg speedWind from/ knotsBaromVisibWave heightAir tempDewpointWater temp
2014-Sep-16 02:33N 53°32' E 009°55'0 0.0
2014-Sep-16 01:33N 53°32' E 009°55'0 0.0
2014-Sep-16 00:33N 53°32' E 009°55'0 0.0
2014-Sep-15 23:33N 53°32' E 009°55'0 0.0
2014-Sep-15 22:33N 53°32' E 009°55'0 0.0
2014-Sep-15 21:33N 53°32' E 009°55'0 0.0
2014-Sep-15 20:33N 53°32' E 009°55'3 3.3
2014-Sep-15 19:33N 53°33' E 009°49'1110.8
2014-Sep-15 18:33N 53°37' E 009°33'1211.7
2014-Sep-15 17:33N 53°47' E 009°23'1211.7
2014-Sep-15 16:33N 53°52' E 009°05'1211.7
2014-Sep-15 15:33N 53°51' E 008°45'1111.3
2014-Sep-15 14:33N 53°58' E 008°30'1413.8
2014-Sep-15 13:34N 53°59' E 008°07'10 9.7
2014-Sep-15 12:33N 53°49' E 008°07'1716.7
2014-Sep-15 11:33N 53°38' E 008°27'5 4.5
2014-Sep-15 10:33N 53°34' E 008°32'0 0.0
2014-Sep-15 09:33N 53°34' E 008°32'0 0.0
2014-Sep-15 08:33N 53°34' E 008°32'0 0.0
2014-Sep-15 07:33N 53°34' E 008°32'0 0.0
2014-Sep-15 06:33N 53°34' E 008°32'0 0.0
2014-Sep-15 05:33N 53°34' E 008°32'0 0.0
2014-Sep-15 04:33N 53°34' E 008°32'0 0.0
2014-Sep-15 03:33N 53°34' E 008°32'0 0.0
2014-Sep-15 02:33N 53°34' E 008°32'0 0.0
2014-Sep-15 01:33N 53°34' E 008°32'0 0.0
2014-Sep-15 00:33N 53°34' E 008°32'0 0.0
2014-Sep-14 23:33N 53°34' E 008°32'0 0.0
2014-Sep-14 22:33N 53°34' E 008°32'0 0.0
2014-Sep-14 21:33N 53°34' E 008°32'1 0.7
2014-Sep-14 20:33N 53°35' E 008°32'1110.7
2014-Sep-14 19:34N 53°42' E 008°19'1414.0
2014-Sep-14 18:33N 53°51' E 008°00'1313.1
2014-Sep-14 17:33N 53°54' E 007°38'4513.6
2014-Sep-14 14:14N 53°45' E 006°23'1014.4
2014-Sep-14 13:32N 53°43' E 006°07'1414.1
2014-Sep-14 12:33N 53°37' E 005°45'1413.9
2014-Sep-14 11:34N 53°33' E 005°23'1413.8
2014-Sep-14 10:33N 53°29' E 005°01'1313.0
2014-Sep-14 09:33N 53°22' E 004°42'1513.5
2014-Sep-14 08:27N 53°09' E 004°30'1314.2
2014-Sep-14 07:31N 52°58' E 004°19'1413.9
2014-Sep-14 06:30N 52°46' E 004°07'1314.0
2014-Sep-14 05:33N 52°36' E 003°52'1514.4
2014-Sep-14 04:30N 52°25' E 003°35'8712.5
2014-Sep-13 21:34N 51°56' E 001°22'3 3.0
2014-Sep-13 20:33N 51°58' E 001°18'0 0.0
2014-Sep-13 19:33N 51°58' E 001°18'0 0.0
2014-Sep-13 18:33N 51°58' E 001°18'0 0.0
2014-Sep-13 17:33N 51°58' E 001°18'0 0.0
2014-Sep-13 16:33N 51°58' E 001°18'0 0.0
2014-Sep-13 15:33N 51°58' E 001°18'0 0.0
2014-Sep-13 14:33N 51°58' E 001°18'0 0.0
2014-Sep-13 13:33N 51°58' E 001°18'0 0.0
2014-Sep-13 12:33N 51°58' E 001°18'0 0.0
2014-Sep-13 11:33N 51°58' E 001°18'0 0.0
2014-Sep-13 10:33N 51°58' E 001°18'0 0.0
2014-Sep-13 09:33N 51°58' E 001°18'0 0.0
2014-Sep-13 08:33N 51°58' E 001°18'0 0.0
2014-Sep-13 07:33N 51°58' E 001°18'0 0.0
2014-Sep-13 06:33N 51°57' E 001°18'1 0.6
2014-Sep-13 05:34N 51°57' E 001°19'10 9.6
2014-Sep-13 04:34N 51°55' E 001°34'8 8.2
2014-Sep-13 03:33N 51°51' E 001°46'1111.3
2014-Sep-13 02:33N 51°40' E 001°50'1212.3
2014-Sep-13 01:33N 51°29' E 001°57'10 9.4
2014-Sep-13 00:29N 51°19' E 001°57'1313.7
2014-Sep-12 23:33N 51°09' E 001°44'1313.4
2014-Sep-12 22:33N 50°59' E 001°30'10012.2
2014-Sep-12 14:25N 49°43' W 000°12'1112.9
2014-Sep-12 13:33N 49°32' W 000°08'1211.9
2014-Sep-12 12:33N 49°27' E 000°09'1 0.7
2014-Sep-12 11:29N 49°28' E 000°08'0 0.0
2014-Sep-12 10:29N 49°28' E 000°08'0 0.0
2014-Sep-12 09:29N 49°28' E 000°08'0 0.0
2014-Sep-12 08:23N 49°28' E 000°08'0 0.0
2014-Sep-12 07:29N 49°28' E 000°08'0 0.0
2014-Sep-12 06:29N 49°28' E 000°08'0 0.0
2014-Sep-12 05:32N 49°28' E 000°08'0 0.0
2014-Sep-12 04:29N 49°28' E 000°08'0 0.0
2014-Sep-12 03:22N 49°28' E 000°08'0 0.0
2014-Sep-12 02:28N 49°28' E 000°08'0 0.0
2014-Sep-12 01:28N 49°28' E 000°08'0 0.0
2014-Sep-12 00:28N 49°28' E 000°08'0 0.0
2014-Sep-11 23:28N 49°28' E 000°08'0 0.0
2014-Sep-11 22:28N 49°28' E 000°08'0 0.0
2014-Sep-11 21:28N 49°28' E 000°08'0 0.0
2014-Sep-11 20:28N 49°28' E 000°08'0 0.0
2014-Sep-11 19:28N 49°28' E 000°08'0 0.0
2014-Sep-11 18:28N 49°28' E 000°08'2 2.4
2014-Sep-11 17:33N 49°29' E 000°05'1312.7
2014-Sep-11 16:34N 49°33' W 000°13'1413.8
2014-Sep-11 15:33N 49°39' W 000°32'  
2014-Sep-09 10:13N 37°56' W 008°55'4 0.3
2014-Sep-08 19:23N 37°53' W 008°51'0 0.1
2014-Sep-08 17:23N 37°53' W 008°51'6 3.1
2014-Sep-08 15:28N 37°48' W 008°56'1513.8
2014-Sep-08 14:23N 37°35' W 009°05'5811.8
2014-Sep-08 09:28N 36°37' W 008°55'1415.6
2014-Sep-08 08:33N 36°34' W 008°38'28715.1
2014-Sep-07 13:32N 36°22' W 002°41'1515.6
2014-Sep-07 12:33N 36°24' W 002°22'1615.3
2014-Sep-07 11:32N 36°28' W 002°04'1615.8
2014-Sep-07 10:33N 36°30' W 001°44'1515.4
2014-Sep-07 09:33N 36°33' W 001°25'1815.7
2014-Sep-07 08:25N 36°35' W 001°04'1315.6
2014-Sep-07 07:34N 36°38' W 000°47'1615.7
2014-Sep-07 06:33N 36°40' W 000°28'1615.9
2014-Sep-07 05:32N 36°43' W 000°08'1616.0
2014-Sep-07 04:33N 36°45' E 000°12'1615.6
2014-Sep-07 03:33N 36°48' E 000°31'1615.5
2014-Sep-07 02:33N 36°50' E 000°50'1515.2
2014-Sep-07 01:33N 36°53' E 001°09'1615.7
2014-Sep-07 00:33N 36°55' E 001°28'1615.9
2014-Sep-06 23:33N 36°57' E 001°48'1615.9
2014-Sep-06 22:33N 37°00' E 002°07'1616.3
2014-Sep-06 21:33N 37°03' E 002°27'1615.5
2014-Sep-06 20:33N 37°05' E 002°47'1615.4
2014-Sep-06 19:32N 37°07' E 003°06'1616.7
2014-Sep-06 18:33N 37°10' E 003°26'1714.5
2014-Sep-06 17:25N 37°13' E 003°47'1615.6
2014-Sep-06 16:23N 37°15' E 004°07'1415.7
2014-Sep-06 15:29N 37°17' E 004°24'1815.4
2014-Sep-06 14:20N 37°20' E 004°46'  
Track history (hours):
 
Tides and Currents Weather Stations Pressure Air Temp Water Temp Dewpoint Dewpoint Depression Visibility Wind Speed Wind Dir Waves Ship Positions

Sct Santiago

Last reported at 2014-Sep-16 02:33 UTC. Time now 2014-Sep-16 02:59 UTC.
Position N 53°32' E 009°55'.

Length 294 m; draft 8.4 m.

Type: Cargo ship. MMSI: 538002953.

Date/timePositionNaut miles runAvg speedWind from/ knotsBaromVisibWave heightAir tempDewpointWater temp
2014-Sep-16 02:33N 53°32' E 009°55'0 0.0
2014-Sep-16 01:33N 53°32' E 009°55'0 0.0
2014-Sep-16 00:33N 53°32' E 009°55'0 0.0
2014-Sep-15 23:33N 53°32' E 009°55'0 0.0
2014-Sep-15 22:33N 53°32' E 009°55'0 0.0
2014-Sep-15 21:33N 53°32' E 009°55'0 0.0
2014-Sep-15 20:33N 53°32' E 009°55'3 3.3
2014-Sep-15 19:33N 53°33' E 009°49'1110.8
2014-Sep-15 18:33N 53°37' E 009°33'1211.7
2014-Sep-15 17:33N 53°47' E 009°23'1211.7
2014-Sep-15 16:33N 53°52' E 009°05'1211.7
2014-Sep-15 15:33N 53°51' E 008°45'1111.3
2014-Sep-15 14:33N 53°58' E 008°30'1413.8
2014-Sep-15 13:34N 53°59' E 008°07'10 9.7
2014-Sep-15 12:33N 53°49' E 008°07'1716.7
2014-Sep-15 11:33N 53°38' E 008°27'5 4.5
2014-Sep-15 10:33N 53°34' E 008°32'0 0.0
2014-Sep-15 09:33N 53°34' E 008°32'0 0.0
2014-Sep-15 08:33N 53°34' E 008°32'0 0.0
2014-Sep-15 07:33N 53°34' E 008°32'0 0.0
2014-Sep-15 06:33N 53°34' E 008°32'0 0.0
2014-Sep-15 05:33N 53°34' E 008°32'0 0.0
2014-Sep-15 04:33N 53°34' E 008°32'0 0.0
2014-Sep-15 03:33N 53°34' E 008°32'0 0.0
2014-Sep-15 02:33N 53°34' E 008°32'0 0.0
2014-Sep-15 01:33N 53°34' E 008°32'0 0.0
2014-Sep-15 00:33N 53°34' E 008°32'0 0.0
2014-Sep-14 23:33N 53°34' E 008°32'0 0.0
2014-Sep-14 22:33N 53°34' E 008°32'0 0.0
2014-Sep-14 21:33N 53°34' E 008°32'1 0.7
2014-Sep-14 20:33N 53°35' E 008°32'1110.7
2014-Sep-14 19:34N 53°42' E 008°19'1414.0
2014-Sep-14 18:33N 53°51' E 008°00'1313.1
2014-Sep-14 17:33N 53°54' E 007°38'4513.6
2014-Sep-14 14:14N 53°45' E 006°23'1014.4
2014-Sep-14 13:32N 53°43' E 006°07'1414.1
2014-Sep-14 12:33N 53°37' E 005°45'1413.9
2014-Sep-14 11:34N 53°33' E 005°23'1413.8
2014-Sep-14 10:33N 53°29' E 005°01'1313.0
2014-Sep-14 09:33N 53°22' E 004°42'1513.5
2014-Sep-14 08:27N 53°09' E 004°30'1314.2
2014-Sep-14 07:31N 52°58' E 004°19'1413.9
2014-Sep-14 06:30N 52°46' E 004°07'1314.0
2014-Sep-14 05:33N 52°36' E 003°52'1514.4
2014-Sep-14 04:30N 52°25' E 003°35'8712.5
2014-Sep-13 21:34N 51°56' E 001°22'3 3.0
2014-Sep-13 20:33N 51°58' E 001°18'0 0.0
2014-Sep-13 19:33N 51°58' E 001°18'0 0.0
2014-Sep-13 18:33N 51°58' E 001°18'0 0.0
2014-Sep-13 17:33N 51°58' E 001°18'0 0.0
2014-Sep-13 16:33N 51°58' E 001°18'0 0.0
2014-Sep-13 15:33N 51°58' E 001°18'0 0.0
2014-Sep-13 14:33N 51°58' E 001°18'0 0.0
2014-Sep-13 13:33N 51°58' E 001°18'0 0.0
2014-Sep-13 12:33N 51°58' E 001°18'0 0.0
2014-Sep-13 11:33N 51°58' E 001°18'0 0.0
2014-Sep-13 10:33N 51°58' E 001°18'0 0.0
2014-Sep-13 09:33N 51°58' E 001°18'0 0.0
2014-Sep-13 08:33N 51°58' E 001°18'0 0.0
2014-Sep-13 07:33N 51°58' E 001°18'0 0.0
2014-Sep-13 06:33N 51°57' E 001°18'1 0.6
2014-Sep-13 05:34N 51°57' E 001°19'10 9.6
2014-Sep-13 04:34N 51°55' E 001°34'8 8.2
2014-Sep-13 03:33N 51°51' E 001°46'1111.3
2014-Sep-13 02:33N 51°40' E 001°50'1212.3
2014-Sep-13 01:33N 51°29' E 001°57'10 9.4
2014-Sep-13 00:29N 51°19' E 001°57'1313.7
2014-Sep-12 23:33N 51°09' E 001°44'1313.4
2014-Sep-12 22:33N 50°59' E 001°30'10012.2
2014-Sep-12 14:25N 49°43' W 000°12'1112.9
2014-Sep-12 13:33N 49°32' W 000°08'1211.9
2014-Sep-12 12:33N 49°27' E 000°09'1 0.7
2014-Sep-12 11:29N 49°28' E 000°08'0 0.0
2014-Sep-12 10:29N 49°28' E 000°08'0 0.0
2014-Sep-12 09:29N 49°28' E 000°08'0 0.0
2014-Sep-12 08:23N 49°28' E 000°08'0 0.0
2014-Sep-12 07:29N 49°28' E 000°08'0 0.0
2014-Sep-12 06:29N 49°28' E 000°08'0 0.0
2014-Sep-12 05:32N 49°28' E 000°08'0 0.0
2014-Sep-12 04:29N 49°28' E 000°08'0 0.0
2014-Sep-12 03:22N 49°28' E 000°08'0 0.0
2014-Sep-12 02:28N 49°28' E 000°08'0 0.0
2014-Sep-12 01:28N 49°28' E 000°08'0 0.0
2014-Sep-12 00:28N 49°28' E 000°08'0 0.0
2014-Sep-11 23:28N 49°28' E 000°08'0 0.0
2014-Sep-11 22:28N 49°28' E 000°08'0 0.0
2014-Sep-11 21:28N 49°28' E 000°08'0 0.0
2014-Sep-11 20:28N 49°28' E 000°08'0 0.0
2014-Sep-11 19:28N 49°28' E 000°08'0 0.0
2014-Sep-11 18:28N 49°28' E 000°08'2 2.4
2014-Sep-11 17:33N 49°29' E 000°05'1312.7
2014-Sep-11 16:34N 49°33' W 000°13'1413.8
2014-Sep-11 15:33N 49°39' W 000°32'  
2014-Sep-09 10:13N 37°56' W 008°55'4 0.3
2014-Sep-08 19:23N 37°53' W 008°51'0 0.1
2014-Sep-08 17:23N 37°53' W 008°51'6 3.1
2014-Sep-08 15:28N 37°48' W 008°56'1513.8
2014-Sep-08 14:23N 37°35' W 009°05'5811.8
2014-Sep-08 09:28N 36°37' W 008°55'1415.6
2014-Sep-08 08:33N 36°34' W 008°38'28715.1
2014-Sep-07 13:32N 36°22' W 002°41'1515.6
2014-Sep-07 12:33N 36°24' W 002°22'1615.3
2014-Sep-07 11:32N 36°28' W 002°04'1615.8
2014-Sep-07 10:33N 36°30' W 001°44'1515.4
2014-Sep-07 09:33N 36°33' W 001°25'1815.7
2014-Sep-07 08:25N 36°35' W 001°04'1315.6
2014-Sep-07 07:34N 36°38' W 000°47'1615.7
2014-Sep-07 06:33N 36°40' W 000°28'1615.9
2014-Sep-07 05:32N 36°43' W 000°08'1616.0
2014-Sep-07 04:33N 36°45' E 000°12'1615.6
2014-Sep-07 03:33N 36°48' E 000°31'1615.5
2014-Sep-07 02:33N 36°50' E 000°50'1515.2
2014-Sep-07 01:33N 36°53' E 001°09'1615.7
2014-Sep-07 00:33N 36°55' E 001°28'1615.9
2014-Sep-06 23:33N 36°57' E 001°48'1615.9
2014-Sep-06 22:33N 37°00' E 002°07'1616.3
2014-Sep-06 21:33N 37°03' E 002°27'1615.5
2014-Sep-06 20:33N 37°05' E 002°47'1615.4
2014-Sep-06 19:32N 37°07' E 003°06'1616.7
2014-Sep-06 18:33N 37°10' E 003°26'1714.5
2014-Sep-06 17:25N 37°13' E 003°47'1615.6
2014-Sep-06 16:23N 37°15' E 004°07'1415.7
2014-Sep-06 15:29N 37°17' E 004°24'1815.4
2014-Sep-06 14:20N 37°20' E 004°46'  

Dump ship's entire track history